createdAt,value
2018-08-20T00:00:57.072Z,22.70
2018-08-20T00:01:57.076Z,22.66
2018-08-20T00:02:57.073Z,22.61
2018-08-20T00:03:57.072Z,22.63
2018-08-20T00:04:57.072Z,22.56
2018-08-20T00:05:57.064Z,22.57
2018-08-20T00:06:57.117Z,22.52
2018-08-20T00:07:57.067Z,22.57
2018-08-20T00:08:57.067Z,22.61
2018-08-20T00:09:57.066Z,22.64
2018-08-20T00:10:57.058Z,22.67
2018-08-20T00:11:57.060Z,22.67
2018-08-20T00:12:57.057Z,22.56
2018-08-20T00:13:57.060Z,22.54
2018-08-20T00:14:57.059Z,22.59
2018-08-20T00:15:57.053Z,22.45
2018-08-20T00:16:57.056Z,22.48
2018-08-20T00:17:57.048Z,22.46
2018-08-20T00:18:57.049Z,22.46
2018-08-20T00:19:57.047Z,22.49
2018-08-20T00:20:57.050Z,22.51
2018-08-20T00:21:57.047Z,22.48
2018-08-20T00:22:57.048Z,22.49
2018-08-20T00:23:57.048Z,22.42
2018-08-20T00:24:57.045Z,22.36
2018-08-20T00:25:57.045Z,22.36
2018-08-20T00:26:57.046Z,22.38
2018-08-20T00:27:57.038Z,22.39
2018-08-20T00:28:57.033Z,22.41
2018-08-20T00:29:57.036Z,22.39
2018-08-20T00:30:57.030Z,22.45
2018-08-20T00:31:57.027Z,22.36
2018-08-20T00:32:57.029Z,22.38
2018-08-20T00:33:57.032Z,22.39
2018-08-20T00:34:57.026Z,22.33
2018-08-20T00:35:57.033Z,22.36
2018-08-20T00:36:57.023Z,22.35
2018-08-20T00:37:57.018Z,22.41
2018-08-20T00:38:57.019Z,22.31
2018-08-20T00:39:57.024Z,22.30
2018-08-20T00:40:57.015Z,22.23
2018-08-20T00:41:57.017Z,22.21
2018-08-20T00:42:57.013Z,22.20
2018-08-20T00:43:57.009Z,22.09
2018-08-20T00:44:57.018Z,22.24
2018-08-20T00:45:57.008Z,22.14
2018-08-20T00:46:57.005Z,22.15
2018-08-20T00:47:57.003Z,22.11
2018-08-20T00:48:57.000Z,22.02
2018-08-20T00:49:57.005Z,22.06
2018-08-20T00:50:57.003Z,22.09
2018-08-20T00:51:56.995Z,22.05
2018-08-20T00:52:57.000Z,22.17
2018-08-20T00:53:56.991Z,22.27
2018-08-20T00:54:56.992Z,22.21
2018-08-20T00:55:57.001Z,22.19
2018-08-20T00:56:56.987Z,22.15
2018-08-20T00:57:56.982Z,22.06
2018-08-20T00:58:56.990Z,22.11
2018-08-20T00:59:56.983Z,22.05
2018-08-20T01:00:56.980Z,21.98
2018-08-20T01:01:56.979Z,21.96
2018-08-20T01:02:56.979Z,21.98
2018-08-20T01:03:56.972Z,22.06
2018-08-20T01:04:56.970Z,22.05
2018-08-20T01:05:56.973Z,22.04
2018-08-20T01:06:56.972Z,22.02
2018-08-20T01:07:56.988Z,21.89
2018-08-20T01:08:56.969Z,22.05
2018-08-20T01:09:56.964Z,21.98
2018-08-20T01:10:56.964Z,21.94
2018-08-20T01:11:57.030Z,21.96
2018-08-20T01:12:56.966Z,21.91
2018-08-20T01:13:56.957Z,21.94
2018-08-20T01:14:56.960Z,21.89
2018-08-20T01:15:56.954Z,21.89
2018-08-20T01:16:56.948Z,21.91
2018-08-20T01:17:56.947Z,21.81
2018-08-20T01:18:56.951Z,21.85
2018-08-20T01:19:56.945Z,21.71
2018-08-20T01:20:56.947Z,21.83
2018-08-20T01:21:56.988Z,21.77
2018-08-20T01:22:56.936Z,21.75
2018-08-20T01:23:56.934Z,21.71
2018-08-20T01:24:56.933Z,21.71
2018-08-20T01:25:56.930Z,21.74
2018-08-20T01:26:56.931Z,21.68
2018-08-20T01:27:56.929Z,21.71
2018-08-20T01:28:56.926Z,21.66
2018-08-20T01:29:56.924Z,21.71
2018-08-20T01:30:56.924Z,21.61
2018-08-20T01:31:56.923Z,21.61
2018-08-20T01:32:56.925Z,21.70
2018-08-20T01:33:56.916Z,21.79
2018-08-20T01:34:56.912Z,21.77
2018-08-20T01:35:56.910Z,21.68
2018-08-20T01:36:56.909Z,21.71
2018-08-20T01:37:56.911Z,21.63
2018-08-20T01:38:56.933Z,21.56
2018-08-20T01:39:56.899Z,21.56
2018-08-20T01:40:56.900Z,21.56
2018-08-20T01:41:56.902Z,21.66
2018-08-20T01:42:56.964Z,21.58
2018-08-20T01:43:56.890Z,21.52
2018-08-20T01:44:56.952Z,21.37
2018-08-20T01:45:56.893Z,21.43
2018-08-20T01:46:56.890Z,21.38
2018-08-20T01:47:56.888Z,21.40
2018-08-20T01:48:56.882Z,21.31
2018-08-20T01:49:56.876Z,21.34
2018-08-20T01:50:56.886Z,21.31
2018-08-20T01:51:56.872Z,21.34
2018-08-20T01:52:56.876Z,21.37
2018-08-20T01:53:56.868Z,21.31
2018-08-20T01:54:56.922Z,21.28
2018-08-20T01:55:56.864Z,21.15
2018-08-20T01:56:56.862Z,21.21
2018-08-20T01:57:56.858Z,21.33
2018-08-20T01:58:56.858Z,21.31
2018-08-20T01:59:56.857Z,21.38
2018-08-20T02:00:56.860Z,21.40
2018-08-20T02:01:56.854Z,21.46
2018-08-20T02:02:56.854Z,21.49
2018-08-20T02:03:56.843Z,21.46
2018-08-20T02:04:56.889Z,21.49
2018-08-20T02:05:56.840Z,21.56
2018-08-20T02:06:56.838Z,21.52
2018-08-20T02:07:56.839Z,21.53
2018-08-20T02:08:56.838Z,21.49
2018-08-20T02:09:56.828Z,21.55
2018-08-20T02:10:56.828Z,21.49
2018-08-20T02:11:56.871Z,21.55
2018-08-20T02:12:56.820Z,21.55
2018-08-20T02:13:56.819Z,21.43
2018-08-20T02:14:56.823Z,21.49
2018-08-20T02:15:56.817Z,21.49
2018-08-20T02:16:56.816Z,21.42
2018-08-20T02:17:56.809Z,21.38
2018-08-20T02:18:56.806Z,21.43
2018-08-20T02:19:56.807Z,21.48
2018-08-20T02:20:56.805Z,21.45
2018-08-20T02:21:56.800Z,21.58
2018-08-20T02:22:56.796Z,21.55
2018-08-20T02:23:56.798Z,21.58
2018-08-20T02:24:56.790Z,21.63
2018-08-20T02:25:56.800Z,21.58
2018-08-20T02:26:56.787Z,21.53
2018-08-20T02:27:56.847Z,21.61
2018-08-20T02:28:56.781Z,21.48
2018-08-20T02:29:56.783Z,21.42
2018-08-20T02:30:56.781Z,21.43
2018-08-20T02:31:56.775Z,21.38
2018-08-20T02:32:56.774Z,21.37
2018-08-20T02:33:56.769Z,21.15
2018-08-20T02:34:56.768Z,21.16
2018-08-20T02:35:56.766Z,21.16
2018-08-20T02:36:56.769Z,21.22
2018-08-20T02:37:56.812Z,21.18
2018-08-20T02:38:56.757Z,21.12
2018-08-20T02:39:56.761Z,21.16
2018-08-20T02:40:56.751Z,21.12
2018-08-20T02:41:56.749Z,21.15
2018-08-20T02:42:56.752Z,21.15
2018-08-20T02:43:56.746Z,21.15
2018-08-20T02:44:56.748Z,21.15
2018-08-20T02:45:56.745Z,21.09
2018-08-20T02:46:56.736Z,21.11
2018-08-20T02:47:56.785Z,20.98
2018-08-20T02:48:56.740Z,21.00
2018-08-20T02:49:56.727Z,20.97
2018-08-20T02:50:56.729Z,21.06
2018-08-20T02:51:56.728Z,21.13
2018-08-20T02:52:56.721Z,21.18
2018-08-20T02:53:56.721Z,21.13
2018-08-20T02:54:56.720Z,21.06
2018-08-20T02:55:56.712Z,21.06
2018-08-20T02:56:56.716Z,21.03
2018-08-20T02:57:56.752Z,21.00
2018-08-20T02:58:56.706Z,21.03
2018-08-20T02:59:56.709Z,20.97
2018-08-20T03:00:56.705Z,21.05
2018-08-20T03:01:56.701Z,21.00
2018-08-20T03:02:56.695Z,20.96
2018-08-20T03:03:56.699Z,20.96
2018-08-20T03:04:56.690Z,20.98
2018-08-20T03:05:56.709Z,20.93
2018-08-20T03:06:56.688Z,20.90
2018-08-20T03:07:56.685Z,20.93
2018-08-20T03:08:56.683Z,20.90
2018-08-20T03:09:56.680Z,20.94
2018-08-20T03:10:56.682Z,20.91
2018-08-20T03:11:56.674Z,20.94
2018-08-20T03:12:56.671Z,20.88
2018-08-20T03:13:56.665Z,20.93
2018-08-20T03:14:56.662Z,20.87
2018-08-20T03:15:56.658Z,20.88
2018-08-20T03:16:56.660Z,20.88
2018-08-20T03:17:56.659Z,20.87
2018-08-20T03:18:56.658Z,20.90
2018-08-20T03:19:56.650Z,20.87
2018-08-20T03:20:56.654Z,20.85
2018-08-20T03:21:56.649Z,20.90
2018-08-20T03:22:56.643Z,20.90
2018-08-20T03:23:56.638Z,20.82
2018-08-20T03:24:56.640Z,20.75
2018-08-20T03:25:56.636Z,20.76
2018-08-20T03:26:56.641Z,20.83
2018-08-20T03:27:56.633Z,20.90
2018-08-20T03:28:56.630Z,20.87
2018-08-20T03:29:56.621Z,20.87
2018-08-20T03:30:56.619Z,20.83
2018-08-20T03:31:56.617Z,20.87
2018-08-20T03:32:56.613Z,20.90
2018-08-20T03:33:56.619Z,20.88
2018-08-20T03:34:56.606Z,20.90
2018-08-20T03:35:56.612Z,20.88
2018-08-20T03:36:56.607Z,20.90
2018-08-20T03:37:56.599Z,20.87
2018-08-20T03:38:56.622Z,20.81
2018-08-20T03:39:56.598Z,20.82
2018-08-20T03:40:56.590Z,20.87
2018-08-20T03:41:56.587Z,20.87
2018-08-20T03:42:56.586Z,20.87
2018-08-20T03:43:56.589Z,20.87
2018-08-20T03:44:56.584Z,20.81
2018-08-20T03:45:56.581Z,20.83
2018-08-20T03:46:56.575Z,20.76
2018-08-20T03:47:56.572Z,20.83
2018-08-20T03:48:56.569Z,20.82
2018-08-20T03:49:56.572Z,20.83
2018-08-20T03:50:56.617Z,20.88
2018-08-20T03:51:56.561Z,20.93
2018-08-20T03:52:56.563Z,20.88
2018-08-20T03:53:56.558Z,20.87
2018-08-20T03:54:56.555Z,20.91
2018-08-20T03:55:56.555Z,20.90
2018-08-20T03:56:56.545Z,20.91
2018-08-20T03:57:56.542Z,20.96
2018-08-20T03:58:56.540Z,20.94
2018-08-20T03:59:56.540Z,20.93
2018-08-20T04:00:56.588Z,20.97
2018-08-20T04:01:56.537Z,20.91
2018-08-20T04:02:56.535Z,20.94
2018-08-20T04:03:56.529Z,20.93
2018-08-20T04:04:56.558Z,20.88
2018-08-20T04:05:56.522Z,20.85
2018-08-20T04:06:56.518Z,20.96
2018-08-20T04:07:56.563Z,20.91
2018-08-20T04:08:56.516Z,20.83
2018-08-20T04:09:56.507Z,20.91
2018-08-20T04:10:56.550Z,20.93
2018-08-20T04:11:56.503Z,20.90
2018-08-20T04:12:56.503Z,20.90
2018-08-20T04:13:56.499Z,20.90
2018-08-20T04:14:56.496Z,20.87
2018-08-20T04:15:56.492Z,20.94
2018-08-20T04:16:56.488Z,20.88
2018-08-20T04:17:56.484Z,20.93
2018-08-20T04:18:56.488Z,20.90
2018-08-20T04:19:56.478Z,20.96
2018-08-20T04:20:56.479Z,20.96
2018-08-20T04:21:56.476Z,20.96
2018-08-20T04:22:56.486Z,20.93
2018-08-20T04:23:56.468Z,20.93
2018-08-20T04:24:56.463Z,20.97
2018-08-20T04:25:56.470Z,20.97
2018-08-20T04:26:56.457Z,20.93
2018-08-20T04:27:56.463Z,20.83
2018-08-20T04:28:56.460Z,20.96
2018-08-20T04:29:56.446Z,20.96
2018-08-20T04:30:56.448Z,20.87
2018-08-20T04:31:56.443Z,20.76
2018-08-20T04:32:56.445Z,20.85
2018-08-20T04:33:56.437Z,20.78
2018-08-20T04:34:56.438Z,20.75
2018-08-20T04:35:56.433Z,20.73
2018-08-20T04:36:56.447Z,20.78
2018-08-20T04:37:56.426Z,20.83
2018-08-20T04:38:56.426Z,20.73
2018-08-20T04:39:56.418Z,20.78
2018-08-20T04:40:56.414Z,20.71
2018-08-20T04:41:56.419Z,20.73
2018-08-20T04:42:56.408Z,20.60
2018-08-20T04:43:56.409Z,20.69
2018-08-20T04:44:56.402Z,20.64
2018-08-20T04:45:56.400Z,20.64
2018-08-20T04:46:56.403Z,20.72
2018-08-20T04:47:56.398Z,20.72
2018-08-20T04:48:56.395Z,20.75
2018-08-20T04:49:56.480Z,20.64
2018-08-20T04:50:56.404Z,20.57
2018-08-20T04:51:56.383Z,20.69
2018-08-20T04:52:56.381Z,20.66
2018-08-20T04:53:56.383Z,20.58
2018-08-20T04:54:56.371Z,20.64
2018-08-20T04:55:56.374Z,20.64
2018-08-20T04:56:56.367Z,20.66
2018-08-20T04:57:56.365Z,20.63
2018-08-20T04:58:56.360Z,20.60
2018-08-20T04:59:56.358Z,20.60
2018-08-20T05:00:56.358Z,20.64
2018-08-20T05:01:56.356Z,20.72
2018-08-20T05:02:56.350Z,20.75
2018-08-20T05:03:56.351Z,20.76
2018-08-20T05:04:56.340Z,20.81
2018-08-20T05:05:56.338Z,20.85
2018-08-20T05:06:56.337Z,20.85
2018-08-20T05:07:56.335Z,20.91
2018-08-20T05:08:56.328Z,20.88
2018-08-20T05:09:56.365Z,20.91
2018-08-20T05:10:56.322Z,20.91
2018-08-20T05:11:56.321Z,20.96
2018-08-20T05:12:56.317Z,20.83
2018-08-20T05:13:56.313Z,20.87
2018-08-20T05:14:56.311Z,20.94
2018-08-20T05:15:56.336Z,20.88
2018-08-20T05:16:56.304Z,20.88
2018-08-20T05:17:56.307Z,20.79
2018-08-20T05:18:56.353Z,20.76
2018-08-20T05:19:56.302Z,20.82
2018-08-20T05:20:56.294Z,20.85
2018-08-20T05:21:56.296Z,20.93
2018-08-20T05:22:56.288Z,21.05
2018-08-20T05:23:56.286Z,21.08
2018-08-20T05:24:56.286Z,21.16
2018-08-20T05:25:56.288Z,21.16
2018-08-20T05:26:56.280Z,21.40
2018-08-20T05:27:56.272Z,21.40
2018-08-20T05:28:56.275Z,21.51
2018-08-20T05:29:56.271Z,21.63
2018-08-20T05:30:56.305Z,21.67
2018-08-20T05:31:56.261Z,21.74
2018-08-20T05:32:56.266Z,21.74
2018-08-20T05:33:56.257Z,21.81
2018-08-20T05:34:56.260Z,21.74
2018-08-20T05:35:56.252Z,21.86
2018-08-20T05:36:56.249Z,21.86
2018-08-20T05:37:56.250Z,21.94
2018-08-20T05:38:56.245Z,21.96
2018-08-20T05:39:56.244Z,21.98
2018-08-20T05:40:56.244Z,22.06
2018-08-20T05:41:56.241Z,22.14
2018-08-20T05:42:56.237Z,22.06
2018-08-20T05:43:56.234Z,21.96
2018-08-20T05:44:56.274Z,22.01
2018-08-20T05:45:56.228Z,21.91
2018-08-20T05:46:56.223Z,21.94
2018-08-20T05:47:56.227Z,22.02
2018-08-20T05:48:56.223Z,22.08
2018-08-20T05:49:56.222Z,22.11
2018-08-20T05:50:56.218Z,22.17
2018-08-20T05:51:56.215Z,22.23
2018-08-20T05:52:56.216Z,22.26
2018-08-20T05:53:56.212Z,22.26
2018-08-20T05:54:56.211Z,22.31
2018-08-20T05:55:56.209Z,22.38
2018-08-20T05:56:56.206Z,22.42
2018-08-20T05:57:56.203Z,22.38
2018-08-20T05:58:56.205Z,22.42
2018-08-20T05:59:56.198Z,22.27
2018-08-20T06:00:56.193Z,22.31
2018-08-20T06:01:56.191Z,22.33
2018-08-20T06:02:56.189Z,22.39
2018-08-20T06:03:56.188Z,22.49
2018-08-20T06:04:56.185Z,22.59
2018-08-20T06:05:56.189Z,22.61
2018-08-20T06:06:56.181Z,22.67
2018-08-20T06:07:56.238Z,22.72
2018-08-20T06:08:56.175Z,22.81
2018-08-20T06:09:56.180Z,22.86
2018-08-20T06:10:56.178Z,22.94
2018-08-20T06:11:56.175Z,22.94
2018-08-20T06:12:56.170Z,23.11
2018-08-20T06:13:56.272Z,23.11
2018-08-20T06:14:56.174Z,23.21
2018-08-20T06:15:56.171Z,23.18
2018-08-20T06:16:56.163Z,23.26
2018-08-20T06:17:56.167Z,23.26
2018-08-20T06:18:56.160Z,23.37
2018-08-20T06:19:56.167Z,23.44
2018-08-20T06:20:56.162Z,23.42
2018-08-20T06:21:56.155Z,23.47
2018-08-20T06:22:56.161Z,23.50
2018-08-20T06:23:56.154Z,23.53
2018-08-20T06:24:56.166Z,23.64
2018-08-20T06:25:56.151Z,23.60
2018-08-20T06:26:56.154Z,23.59
2018-08-20T06:27:56.156Z,23.71
2018-08-20T06:28:56.149Z,23.84
2018-08-20T06:29:56.147Z,23.82
2018-08-20T06:30:56.145Z,23.97
2018-08-20T06:31:56.145Z,24.02
2018-08-20T06:32:56.154Z,24.12
2018-08-20T06:33:56.144Z,24.19
2018-08-20T06:34:56.144Z,24.19
2018-08-20T06:35:56.144Z,24.33
2018-08-20T06:36:56.142Z,24.34
2018-08-20T06:37:56.139Z,24.31
2018-08-20T06:38:56.138Z,24.33
2018-08-20T06:39:56.139Z,24.39
2018-08-20T06:40:56.136Z,24.41
2018-08-20T06:41:56.139Z,24.45
2018-08-20T06:42:56.140Z,24.59
2018-08-20T06:43:56.135Z,24.66
2018-08-20T06:44:56.138Z,24.64
2018-08-20T06:45:56.140Z,24.71
2018-08-20T06:46:56.134Z,24.70
2018-08-20T06:47:56.137Z,24.84
2018-08-20T06:48:56.133Z,24.84
2018-08-20T06:49:56.130Z,24.90
2018-08-20T06:50:56.136Z,25.01
2018-08-20T06:51:56.133Z,25.08
2018-08-20T06:52:56.162Z,25.08
2018-08-20T06:53:56.131Z,25.14
2018-08-20T06:54:56.130Z,25.14
2018-08-20T06:55:56.132Z,25.14
2018-08-20T06:56:56.131Z,25.07
2018-08-20T06:57:56.126Z,25.17
2018-08-20T06:58:56.130Z,25.20
2018-08-20T06:59:56.130Z,25.22
2018-08-20T07:00:56.140Z,25.27
2018-08-20T07:01:56.140Z,25.22
2018-08-20T07:02:56.126Z,25.22
2018-08-20T07:03:56.147Z,25.19
2018-08-20T07:04:56.126Z,25.30
2018-08-20T07:05:56.132Z,25.39
2018-08-20T07:06:56.128Z,25.42
2018-08-20T07:07:56.129Z,25.38
2018-08-20T07:08:56.126Z,25.36
2018-08-20T07:09:56.127Z,25.27
2018-08-20T07:10:56.129Z,25.41
2018-08-20T07:11:56.181Z,25.24
2018-08-20T07:12:56.132Z,25.26
2018-08-20T07:13:56.126Z,25.36
2018-08-20T07:14:56.125Z,25.38
2018-08-20T07:15:56.125Z,25.45
2018-08-20T07:16:56.130Z,25.53
2018-08-20T07:17:56.133Z,25.57
2018-08-20T07:18:56.126Z,25.64
2018-08-20T07:19:56.129Z,25.71
2018-08-20T07:20:56.133Z,25.79
2018-08-20T07:21:56.129Z,25.78
2018-08-20T07:22:56.175Z,25.79
2018-08-20T07:23:56.212Z,25.79
2018-08-20T07:24:56.132Z,25.82
2018-08-20T07:25:56.133Z,25.83
2018-08-20T07:26:56.130Z,25.83
2018-08-20T07:27:56.136Z,25.85
2018-08-20T07:28:56.127Z,25.89
2018-08-20T07:29:56.134Z,25.98
2018-08-20T07:30:56.148Z,26.04
2018-08-20T07:31:56.132Z,26.08
2018-08-20T07:32:56.174Z,26.00
2018-08-20T07:33:56.135Z,26.09
2018-08-20T07:34:56.136Z,26.12
2018-08-20T07:35:56.135Z,26.27
2018-08-20T07:36:56.140Z,26.24
2018-08-20T07:37:56.138Z,26.27
2018-08-20T07:38:56.138Z,26.38
2018-08-20T07:39:56.136Z,26.36
2018-08-20T07:40:56.138Z,26.51
2018-08-20T07:41:56.142Z,26.47
2018-08-20T07:42:56.135Z,26.49
2018-08-20T07:43:56.138Z,26.54
2018-08-20T07:44:56.137Z,26.57
2018-08-20T07:45:56.141Z,26.57
2018-08-20T07:46:56.144Z,26.64
2018-08-20T07:47:56.144Z,26.73
2018-08-20T07:48:56.147Z,26.78
2018-08-20T07:49:56.148Z,26.98
2018-08-20T07:50:56.230Z,27.01
2018-08-20T07:51:56.143Z,27.03
2018-08-20T07:52:56.171Z,27.15
2018-08-20T07:53:56.150Z,27.08
2018-08-20T07:54:56.152Z,27.15
2018-08-20T07:55:56.147Z,27.16
2018-08-20T07:56:56.160Z,27.21
2018-08-20T07:57:56.152Z,27.21
2018-08-20T07:58:56.157Z,27.21
2018-08-20T07:59:56.160Z,27.25
2018-08-20T08:00:56.153Z,27.33
2018-08-20T08:01:56.165Z,27.24
2018-08-20T08:02:56.161Z,27.30
2018-08-20T08:03:56.163Z,27.24
2018-08-20T08:04:56.157Z,27.13
2018-08-20T08:05:56.160Z,27.06
2018-08-20T08:06:56.162Z,27.18
2018-08-20T08:07:56.163Z,27.30
2018-08-20T08:08:56.162Z,27.40
2018-08-20T08:09:56.165Z,27.42
2018-08-20T08:10:56.164Z,27.48
2018-08-20T08:11:56.177Z,27.58
2018-08-20T08:12:56.171Z,27.61
2018-08-20T08:13:56.181Z,27.65
2018-08-20T08:14:56.170Z,27.63
2018-08-20T08:15:56.171Z,27.71
2018-08-20T08:16:56.175Z,27.59
2018-08-20T08:17:56.179Z,27.61
2018-08-20T08:18:56.184Z,27.53
2018-08-20T08:19:56.178Z,27.52
2018-08-20T08:20:56.179Z,27.45
2018-08-20T08:21:56.185Z,27.25
2018-08-20T08:22:56.180Z,27.31
2018-08-20T08:23:56.189Z,27.35
2018-08-20T08:24:56.288Z,27.31
2018-08-20T08:25:56.192Z,27.30
2018-08-20T08:26:56.187Z,27.42
2018-08-20T08:27:56.189Z,27.33
2018-08-20T08:28:56.188Z,27.33
2018-08-20T08:29:56.193Z,27.46
2018-08-20T08:30:56.191Z,27.38
2018-08-20T08:31:56.202Z,27.16
2018-08-20T08:32:56.194Z,27.28
2018-08-20T08:33:56.197Z,27.31
2018-08-20T08:34:56.202Z,27.35
2018-08-20T08:35:56.199Z,27.42
2018-08-20T08:36:56.201Z,27.62
2018-08-20T08:37:56.237Z,27.63
2018-08-20T08:38:56.206Z,27.69
2018-08-20T08:39:56.205Z,27.95
2018-08-20T08:40:56.213Z,28.01
2018-08-20T08:41:56.234Z,28.08
2018-08-20T08:42:56.210Z,28.21
2018-08-20T08:43:56.212Z,28.13
2018-08-20T08:44:56.214Z,28.02
2018-08-20T08:45:56.218Z,28.13
2018-08-20T08:46:56.222Z,28.20
2018-08-20T08:47:56.222Z,28.25
2018-08-20T08:48:56.219Z,28.35
2018-08-20T08:49:56.242Z,28.23
2018-08-20T08:50:56.223Z,28.25
2018-08-20T08:51:56.229Z,28.18
2018-08-20T08:52:56.229Z,28.24
2018-08-20T08:53:56.229Z,28.32
2018-08-20T08:54:56.234Z,28.30
2018-08-20T08:55:56.233Z,28.17
2018-08-20T08:56:56.240Z,28.24
2018-08-20T08:57:56.236Z,28.30
2018-08-20T08:58:56.241Z,28.39
2018-08-20T08:59:56.244Z,28.38
2018-08-20T09:00:56.246Z,28.48
2018-08-20T09:01:56.245Z,28.58
2018-08-20T09:02:56.246Z,28.73
2018-08-20T09:03:56.254Z,28.72
2018-08-20T09:04:56.250Z,28.72
2018-08-20T09:05:56.322Z,28.89
2018-08-20T09:06:56.260Z,28.97
2018-08-20T09:07:56.326Z,28.85
2018-08-20T09:08:56.258Z,28.74
2018-08-20T09:09:56.415Z,28.67
2018-08-20T09:10:56.268Z,28.46
2018-08-20T09:11:56.264Z,28.14
2018-08-20T09:12:56.268Z,28.24
2018-08-20T09:13:56.268Z,28.30
2018-08-20T09:14:56.272Z,28.38
2018-08-20T09:15:56.280Z,28.38
2018-08-20T09:16:56.281Z,28.30
2018-08-20T09:17:56.278Z,28.38
2018-08-20T09:18:56.281Z,28.42
2018-08-20T09:19:56.285Z,28.42
2018-08-20T09:20:56.289Z,28.55
2018-08-20T09:21:56.287Z,28.65
2018-08-20T09:22:56.288Z,28.74
2018-08-20T09:23:56.290Z,28.88
2018-08-20T09:24:56.292Z,29.07
2018-08-20T09:25:56.297Z,29.05
2018-08-20T09:26:56.297Z,29.12
2018-08-20T09:27:56.306Z,29.14
2018-08-20T09:28:56.300Z,29.32
2018-08-20T09:29:56.303Z,29.36
2018-08-20T09:30:56.311Z,29.42
2018-08-20T09:31:56.313Z,29.45
2018-08-20T09:32:56.311Z,29.52
2018-08-20T09:33:56.319Z,29.55
2018-08-20T09:34:56.326Z,29.67
2018-08-20T09:35:56.320Z,29.64
2018-08-20T09:36:56.322Z,29.70
2018-08-20T09:37:56.322Z,29.71
2018-08-20T09:38:56.330Z,29.78
2018-08-20T09:39:56.335Z,29.79
2018-08-20T09:40:56.338Z,29.91
2018-08-20T09:41:56.335Z,29.74
2018-08-20T09:42:56.342Z,29.82
2018-08-20T09:43:56.406Z,29.88
2018-08-20T09:44:56.349Z,29.84
2018-08-20T09:45:56.354Z,29.86
2018-08-20T09:46:56.348Z,29.79
2018-08-20T09:47:56.358Z,29.64
2018-08-20T09:48:56.355Z,29.79
2018-08-20T09:49:56.360Z,29.76
2018-08-20T09:50:56.359Z,29.82
2018-08-20T09:51:56.367Z,29.71
2018-08-20T09:52:56.367Z,29.62
2018-08-20T09:53:56.367Z,29.60
2018-08-20T09:54:56.371Z,29.49
2018-08-20T09:55:56.376Z,29.51
2018-08-20T09:56:56.376Z,29.25
2018-08-20T09:57:56.384Z,29.23
2018-08-20T09:58:56.398Z,29.11
2018-08-20T09:59:56.385Z,29.20
2018-08-20T10:00:56.387Z,29.35
2018-08-20T10:01:56.393Z,29.49
2018-08-20T10:02:56.392Z,29.57
2018-08-20T10:03:56.395Z,29.62
2018-08-20T10:04:56.403Z,29.64
2018-08-20T10:05:56.408Z,29.69
2018-08-20T10:06:56.404Z,29.67
2018-08-20T10:07:56.415Z,29.52
2018-08-20T10:08:56.409Z,29.62
2018-08-20T10:09:56.414Z,29.73
2018-08-20T10:10:56.425Z,29.71
2018-08-20T10:11:56.426Z,29.82
2018-08-20T10:12:56.422Z,29.99
2018-08-20T10:13:56.429Z,29.94
2018-08-20T10:14:56.429Z,30.03
2018-08-20T10:15:56.431Z,30.03
2018-08-20T10:16:56.436Z,30.00
2018-08-20T10:17:56.443Z,30.03
2018-08-20T10:18:56.441Z,30.06
2018-08-20T10:19:56.459Z,30.18
2018-08-20T10:20:56.453Z,30.13
2018-08-20T10:21:56.456Z,30.07
2018-08-20T10:22:56.456Z,30.21
2018-08-20T10:23:56.456Z,30.16
2018-08-20T10:24:56.464Z,30.08
2018-08-20T10:25:56.465Z,30.00
2018-08-20T10:26:56.469Z,29.88
2018-08-20T10:27:56.468Z,29.97
2018-08-20T10:28:56.471Z,29.99
2018-08-20T10:29:56.472Z,30.11
2018-08-20T10:30:56.482Z,30.13
2018-08-20T10:31:56.549Z,30.16
2018-08-20T10:32:56.480Z,30.29
2018-08-20T10:33:56.487Z,30.38
2018-08-20T10:34:56.491Z,30.49
2018-08-20T10:35:56.491Z,30.59
2018-08-20T10:36:56.497Z,30.59
2018-08-20T10:37:56.595Z,30.70
2018-08-20T10:38:56.511Z,30.61
2018-08-20T10:39:56.507Z,30.70
2018-08-20T10:40:56.513Z,30.54
2018-08-20T10:41:56.517Z,30.59
2018-08-20T10:42:56.517Z,30.32
2018-08-20T10:43:56.522Z,30.37
2018-08-20T10:44:56.526Z,30.29
2018-08-20T10:45:56.526Z,30.44
2018-08-20T10:46:56.532Z,30.22
2018-08-20T10:47:56.542Z,30.29
2018-08-20T10:48:56.542Z,30.28
2018-08-20T10:49:56.591Z,30.11
2018-08-20T10:50:56.545Z,30.18
2018-08-20T10:51:56.549Z,30.25
2018-08-20T10:52:56.549Z,30.30
2018-08-20T10:53:56.553Z,30.59
2018-08-20T10:54:56.563Z,30.60
2018-08-20T10:55:56.561Z,30.70
2018-08-20T10:56:56.564Z,30.81
2018-08-20T10:57:56.571Z,30.86
2018-08-20T10:58:56.573Z,30.97
2018-08-20T10:59:56.575Z,30.94
2018-08-20T11:00:56.585Z,30.86
2018-08-20T11:01:56.598Z,30.85
2018-08-20T11:02:56.588Z,30.97
2018-08-20T11:03:56.612Z,31.01
2018-08-20T11:04:56.591Z,31.10
2018-08-20T11:05:56.595Z,31.15
2018-08-20T11:06:56.603Z,31.27
2018-08-20T11:07:56.608Z,31.32
2018-08-20T11:08:56.609Z,31.38
2018-08-20T11:09:56.617Z,31.45
2018-08-20T11:10:56.672Z,31.49
2018-08-20T11:11:56.624Z,31.57
2018-08-20T11:12:56.627Z,31.54
2018-08-20T11:13:56.627Z,31.60
2018-08-20T11:14:56.633Z,31.60
2018-08-20T11:15:56.639Z,31.64
2018-08-20T11:16:56.640Z,31.65
2018-08-20T11:17:56.640Z,31.60
2018-08-20T11:18:56.650Z,31.47
2018-08-20T11:19:56.652Z,31.57
2018-08-20T11:20:56.654Z,31.16
2018-08-20T11:21:56.659Z,30.82
2018-08-20T11:22:56.666Z,30.72
2018-08-20T11:23:56.675Z,30.75
2018-08-20T11:24:56.671Z,30.93
2018-08-20T11:25:56.676Z,30.72
2018-08-20T11:26:56.705Z,30.75
2018-08-20T11:27:56.686Z,30.78
2018-08-20T11:28:56.689Z,30.76
2018-08-20T11:29:56.696Z,30.86
2018-08-20T11:30:56.698Z,30.97
2018-08-20T11:31:56.700Z,30.91
2018-08-20T11:32:56.702Z,31.05
2018-08-20T11:33:56.715Z,31.18
2018-08-20T11:34:56.713Z,31.30
2018-08-20T11:35:56.720Z,31.32
2018-08-20T11:36:56.722Z,31.35
2018-08-20T11:37:56.727Z,31.45
2018-08-20T11:38:56.730Z,31.49
2018-08-20T11:39:56.734Z,31.53
2018-08-20T11:40:56.740Z,31.47
2018-08-20T11:41:56.741Z,31.46
2018-08-20T11:42:56.749Z,31.57
2018-08-20T11:43:56.747Z,31.72
2018-08-20T11:44:56.755Z,31.76
2018-08-20T11:45:56.759Z,31.72
2018-08-20T11:46:56.759Z,31.72
2018-08-20T11:47:56.769Z,31.74
2018-08-20T11:48:56.796Z,31.92
2018-08-20T11:49:56.770Z,32.03
2018-08-20T11:50:56.774Z,32.03
2018-08-20T11:51:56.786Z,31.87
2018-08-20T11:52:56.790Z,31.84
2018-08-20T11:53:56.789Z,31.90
2018-08-20T11:54:56.796Z,31.97
2018-08-20T11:55:56.795Z,31.97
2018-08-20T11:56:56.803Z,32.02
2018-08-20T11:57:56.804Z,32.05
2018-08-20T11:58:56.815Z,31.88
2018-08-20T11:59:56.815Z,31.92
2018-08-20T12:00:56.822Z,32.09
2018-08-20T12:01:56.831Z,32.10
2018-08-20T12:02:56.835Z,32.13
2018-08-20T12:03:56.841Z,32.22
2018-08-20T12:04:56.839Z,32.25
2018-08-20T12:05:56.845Z,32.35
2018-08-20T12:06:56.929Z,32.41
2018-08-20T12:07:56.855Z,32.49
2018-08-20T12:08:56.858Z,32.43
2018-08-20T12:09:56.862Z,32.44
2018-08-20T12:10:56.866Z,32.50
2018-08-20T12:11:56.877Z,32.63
2018-08-20T12:12:56.872Z,32.63
2018-08-20T12:13:56.877Z,32.61
2018-08-20T12:14:56.886Z,32.71
2018-08-20T12:15:56.887Z,32.71
2018-08-20T12:16:56.898Z,32.72
2018-08-20T12:17:56.900Z,32.78
2018-08-20T12:18:56.905Z,32.77
2018-08-20T12:19:56.911Z,32.76
2018-08-20T12:20:56.906Z,32.81
2018-08-20T12:21:56.917Z,32.84
2018-08-20T12:22:56.918Z,32.81
2018-08-20T12:23:56.929Z,32.80
2018-08-20T12:24:56.948Z,32.85
2018-08-20T12:25:56.932Z,32.87
2018-08-20T12:26:56.944Z,32.93
2018-08-20T12:27:56.946Z,32.88
2018-08-20T12:28:56.948Z,32.73
2018-08-20T12:29:56.957Z,32.46
2018-08-20T12:30:56.990Z,32.36
2018-08-20T12:31:56.963Z,32.05
2018-08-20T12:32:56.969Z,31.94
2018-08-20T12:33:56.975Z,31.68
2018-08-20T12:34:56.982Z,31.74
2018-08-20T12:35:56.981Z,31.84
2018-08-20T12:36:56.985Z,31.92
2018-08-20T12:37:56.989Z,31.95
2018-08-20T12:38:56.995Z,32.13
2018-08-20T12:39:57.048Z,32.21
2018-08-20T12:40:57.005Z,32.25
2018-08-20T12:41:57.012Z,32.28
2018-08-20T12:42:57.017Z,32.25
2018-08-20T12:43:57.025Z,32.34
2018-08-20T12:44:57.022Z,32.41
2018-08-20T12:45:57.029Z,32.49
2018-08-20T12:46:57.035Z,32.44
2018-08-20T12:47:57.045Z,32.59
2018-08-20T12:48:57.041Z,32.69
2018-08-20T12:49:57.052Z,32.71
2018-08-20T12:50:57.051Z,32.77
2018-08-20T12:51:57.057Z,32.87
2018-08-20T12:52:57.113Z,32.90